sensor_id;sensor_type;location;lat;lon;timestamp;temperature;humidity
55812;DHT22;41742;52.048;6.092;2022-10-30T00:00:16;14.60;99.90
55812;DHT22;41742;52.048;6.092;2022-10-30T00:02:42;14.60;99.90
55812;DHT22;41742;52.048;6.092;2022-10-30T00:05:08;14.50;99.90
55812;DHT22;41742;52.048;6.092;2022-10-30T00:07:33;14.40;99.90
55812;DHT22;41742;52.048;6.092;2022-10-30T00:09:59;14.40;99.90
55812;DHT22;41742;52.048;6.092;2022-10-30T00:12:24;14.30;99.90
55812;DHT22;41742;52.048;6.092;2022-10-30T00:14:50;14.30;99.90
55812;DHT22;41742;52.048;6.092;2022-10-30T00:17:16;14.30;99.90
55812;DHT22;41742;52.048;6.092;2022-10-30T00:19:45;14.20;99.90
55812;DHT22;41742;52.048;6.092;2022-10-30T00:22:10;14.20;99.90
55812;DHT22;41742;52.048;6.092;2022-10-30T00:24:36;14.20;99.90
55812;DHT22;41742;52.048;6.092;2022-10-30T00:27:01;14.10;99.90
55812;DHT22;41742;52.048;6.092;2022-10-30T00:29:27;14.10;99.90
55812;DHT22;41742;52.048;6.092;2022-10-30T00:31:53;14.00;99.90
55812;DHT22;41742;52.048;6.092;2022-10-30T00:34:19;14.00;99.90
55812;DHT22;41742;52.048;6.092;2022-10-30T00:36:44;13.90;99.90
55812;DHT22;41742;52.048;6.092;2022-10-30T00:39:10;13.90;99.90
55812;DHT22;41742;52.048;6.092;2022-10-30T00:41:37;13.80;99.90
55812;DHT22;41742;52.048;6.092;2022-10-30T00:46:59;13.80;99.90
55812;DHT22;41742;52.048;6.092;2022-10-30T00:49:32;13.70;99.90
55812;DHT22;41742;52.048;6.092;2022-10-30T00:51:59;13.70;99.90
55812;DHT22;41742;52.048;6.092;2022-10-30T00:54:28;13.70;99.90
55812;DHT22;41742;52.048;6.092;2022-10-30T00:56:54;13.70;99.90
55812;DHT22;41742;52.048;6.092;2022-10-30T00:59:23;13.60;99.90
55812;DHT22;41742;52.048;6.092;2022-10-30T01:01:52;13.60;99.90
55812;DHT22;41742;52.048;6.092;2022-10-30T01:04:19;13.60;99.90
55812;DHT22;41742;52.048;6.092;2022-10-30T01:06:47;13.60;99.90
55812;DHT22;41742;52.048;6.092;2022-10-30T01:09:18;13.50;99.90
55812;DHT22;41742;52.048;6.092;2022-10-30T01:11:44;13.50;99.90
55812;DHT22;41742;52.048;6.092;2022-10-30T01:14:11;13.50;99.90
55812;DHT22;41742;52.048;6.092;2022-10-30T01:17:00;13.40;99.90
55812;DHT22;41742;52.048;6.092;2022-10-30T01:19:44;13.40;99.90
55812;DHT22;41742;52.048;6.092;2022-10-30T01:28:06;13.30;99.90
55812;DHT22;41742;52.048;6.092;2022-10-30T01:38:37;13.20;99.90
55812;DHT22;41742;52.048;6.092;2022-10-30T01:41:04;13.10;99.90
55812;DHT22;41742;52.048;6.092;2022-10-30T01:43:30;13.10;99.90
55812;DHT22;41742;52.048;6.092;2022-10-30T01:46:59;13.10;99.90
55812;DHT22;41742;52.048;6.092;2022-10-30T01:58:14;13.00;99.90
55812;DHT22;41742;52.048;6.092;2022-10-30T02:00:42;13.00;99.90
55812;DHT22;41742;52.048;6.092;2022-10-30T02:03:12;12.90;99.90
55812;DHT22;41742;52.048;6.092;2022-10-30T02:05:45;12.90;99.90
55812;DHT22;41742;52.048;6.092;2022-10-30T02:08:11;12.90;99.90
55812;DHT22;41742;52.048;6.092;2022-10-30T02:10:40;12.90;99.90
55812;DHT22;41742;52.048;6.092;2022-10-30T02:13:06;12.80;99.90
55812;DHT22;41742;52.048;6.092;2022-10-30T02:15:33;12.80;99.90
55812;DHT22;41742;52.048;6.092;2022-10-30T02:17:59;12.70;99.90
55812;DHT22;41742;52.048;6.092;2022-10-30T02:20:25;12.70;99.90
55812;DHT22;41742;52.048;6.092;2022-10-30T02:22:51;12.70;99.90
55812;DHT22;41742;52.048;6.092;2022-10-30T02:25:17;12.60;99.90
55812;DHT22;41742;52.048;6.092;2022-10-30T02:27:42;12.60;99.90
55812;DHT22;41742;52.048;6.092;2022-10-30T02:30:10;12.60;99.90
55812;DHT22;41742;52.048;6.092;2022-10-30T02:32:37;12.60;99.90
55812;DHT22;41742;52.048;6.092;2022-10-30T02:35:03;12.60;99.90
55812;DHT22;41742;52.048;6.092;2022-10-30T02:37:29;12.50;99.90
55812;DHT22;41742;52.048;6.092;2022-10-30T02:39:57;12.50;99.90
55812;DHT22;41742;52.048;6.092;2022-10-30T02:42:23;12.50;99.90
55812;DHT22;41742;52.048;6.092;2022-10-30T02:44:51;12.40;99.90
55812;DHT22;41742;52.048;6.092;2022-10-30T02:47:16;12.40;99.90
55812;DHT22;41742;52.048;6.092;2022-10-30T02:49:42;12.40;99.90
55812;DHT22;41742;52.048;6.092;2022-10-30T02:52:09;12.50;99.90
55812;DHT22;41742;52.048;6.092;2022-10-30T02:54:34;12.40;99.90
55812;DHT22;41742;52.048;6.092;2022-10-30T02:57:00;12.40;99.90
55812;DHT22;41742;52.048;6.092;2022-10-30T02:59:26;12.40;99.90
55812;DHT22;41742;52.048;6.092;2022-10-30T03:01:51;12.40;99.90
55812;DHT22;41742;52.048;6.092;2022-10-30T03:04:18;12.30;99.90
55812;DHT22;41742;52.048;6.092;2022-10-30T03:06:43;12.30;99.90
55812;DHT22;41742;52.048;6.092;2022-10-30T03:09:09;12.30;99.90
55812;DHT22;41742;52.048;6.092;2022-10-30T03:11:35;12.30;99.90
55812;DHT22;41742;52.048;6.092;2022-10-30T03:14:00;12.30;99.90
55812;DHT22;41742;52.048;6.092;2022-10-30T03:16:26;12.30;99.90
55812;DHT22;41742;52.048;6.092;2022-10-30T03:18:56;12.20;99.90
55812;DHT22;41742;52.048;6.092;2022-10-30T03:21:25;12.20;99.90
55812;DHT22;41742;52.048;6.092;2022-10-30T03:23:51;12.20;99.90
55812;DHT22;41742;52.048;6.092;2022-10-30T03:26:18;12.10;99.90
55812;DHT22;41742;52.048;6.092;2022-10-30T03:28:50;12.10;99.90
55812;DHT22;41742;52.048;6.092;2022-10-30T03:31:17;12.10;99.90
55812;DHT22;41742;52.048;6.092;2022-10-30T03:33:43;12.10;99.90
55812;DHT22;41742;52.048;6.092;2022-10-30T03:36:12;12.10;99.90
55812;DHT22;41742;52.048;6.092;2022-10-30T03:38:38;12.10;99.90
55812;DHT22;41742;52.048;6.092;2022-10-30T03:41:04;12.10;99.90
55812;DHT22;41742;52.048;6.092;2022-10-30T03:43:31;12.10;99.90
55812;DHT22;41742;52.048;6.092;2022-10-30T03:45:57;12.00;99.90
55812;DHT22;41742;52.048;6.092;2022-10-30T03:48:25;12.00;99.90
55812;DHT22;41742;52.048;6.092;2022-10-30T03:50:52;12.00;99.90
55812;DHT22;41742;52.048;6.092;2022-10-30T03:53:19;11.90;99.90
55812;DHT22;41742;52.048;6.092;2022-10-30T03:55:45;12.00;99.90
55812;DHT22;41742;52.048;6.092;2022-10-30T03:58:11;11.80;99.90
55812;DHT22;41742;52.048;6.092;2022-10-30T04:00:37;11.80;99.90
55812;DHT22;41742;52.048;6.092;2022-10-30T04:03:06;11.80;99.90
55812;DHT22;41742;52.048;6.092;2022-10-30T04:05:35;11.70;99.90
55812;DHT22;41742;52.048;6.092;2022-10-30T04:08:04;11.80;99.90
55812;DHT22;41742;52.048;6.092;2022-10-30T04:10:34;11.80;99.90
55812;DHT22;41742;52.048;6.092;2022-10-30T04:13:04;11.70;99.90
55812;DHT22;41742;52.048;6.092;2022-10-30T04:15:32;11.70;99.90
55812;DHT22;41742;52.048;6.092;2022-10-30T04:17:58;11.70;99.90
55812;DHT22;41742;52.048;6.092;2022-10-30T04:20:24;11.80;99.90
55812;DHT22;41742;52.048;6.092;2022-10-30T04:22:58;11.70;99.90
55812;DHT22;41742;52.048;6.092;2022-10-30T04:25:25;11.80;99.90
55812;DHT22;41742;52.048;6.092;2022-10-30T04:27:51;11.70;99.90
55812;DHT22;41742;52.048;6.092;2022-10-30T04:30:18;11.70;99.90
55812;DHT22;41742;52.048;6.092;2022-10-30T04:32:49;11.70;99.90
55812;DHT22;41742;52.048;6.092;2022-10-30T04:35:18;11.70;99.90
55812;DHT22;41742;52.048;6.092;2022-10-30T04:38:00;11.70;99.90
55812;DHT22;41742;52.048;6.092;2022-10-30T04:40:28;11.70;99.90
55812;DHT22;41742;52.048;6.092;2022-10-30T04:42:58;11.70;99.90
55812;DHT22;41742;52.048;6.092;2022-10-30T04:45:25;11.60;99.90
55812;DHT22;41742;52.048;6.092;2022-10-30T04:47:51;11.70;99.90
55812;DHT22;41742;52.048;6.092;2022-10-30T04:50:17;11.60;99.90
55812;DHT22;41742;52.048;6.092;2022-10-30T04:52:43;11.60;99.90
55812;DHT22;41742;52.048;6.092;2022-10-30T04:55:10;11.60;99.90
55812;DHT22;41742;52.048;6.092;2022-10-30T04:57:37;11.60;99.90
55812;DHT22;41742;52.048;6.092;2022-10-30T05:00:04;11.60;99.90
55812;DHT22;41742;52.048;6.092;2022-10-30T05:02:31;11.50;99.90
55812;DHT22;41742;52.048;6.092;2022-10-30T05:04:57;11.60;99.90
55812;DHT22;41742;52.048;6.092;2022-10-30T05:07:23;11.50;99.90
55812;DHT22;41742;52.048;6.092;2022-10-30T05:09:48;11.50;99.90
55812;DHT22;41742;52.048;6.092;2022-10-30T05:12:14;11.50;99.90
55812;DHT22;41742;52.048;6.092;2022-10-30T05:14:49;11.60;99.90
55812;DHT22;41742;52.048;6.092;2022-10-30T05:17:15;11.60;99.90
55812;DHT22;41742;52.048;6.092;2022-10-30T05:19:41;11.60;99.90
55812;DHT22;41742;52.048;6.092;2022-10-30T05:22:07;11.60;99.90
55812;DHT22;41742;52.048;6.092;2022-10-30T05:24:34;11.50;99.90
55812;DHT22;41742;52.048;6.092;2022-10-30T05:27:00;11.50;99.90
55812;DHT22;41742;52.048;6.092;2022-10-30T05:29:27;11.50;99.90
55812;DHT22;41742;52.048;6.092;2022-10-30T05:31:52;11.50;99.90
55812;DHT22;41742;52.048;6.092;2022-10-30T05:34:37;11.50;99.90
55812;DHT22;41742;52.048;6.092;2022-10-30T05:37:03;11.50;99.90
55812;DHT22;41742;52.048;6.092;2022-10-30T05:39:28;11.50;99.90
55812;DHT22;41742;52.048;6.092;2022-10-30T05:41:55;11.50;99.90
55812;DHT22;41742;52.048;6.092;2022-10-30T05:44:22;11.50;99.90
55812;DHT22;41742;52.048;6.092;2022-10-30T05:46:48;11.50;99.90
55812;DHT22;41742;52.048;6.092;2022-10-30T05:49:23;11.50;99.90
55812;DHT22;41742;52.048;6.092;2022-10-30T05:51:48;11.50;99.90
55812;DHT22;41742;52.048;6.092;2022-10-30T05:54:15;11.40;99.90
55812;DHT22;41742;52.048;6.092;2022-10-30T05:56:56;11.40;99.90
55812;DHT22;41742;52.048;6.092;2022-10-30T05:59:22;11.40;99.90
55812;DHT22;41742;52.048;6.092;2022-10-30T06:01:48;11.40;99.90
55812;DHT22;41742;52.048;6.092;2022-10-30T06:04:14;11.30;99.90
55812;DHT22;41742;52.048;6.092;2022-10-30T06:06:39;11.30;99.90
55812;DHT22;41742;52.048;6.092;2022-10-30T06:09:05;11.30;99.90
55812;DHT22;41742;52.048;6.092;2022-10-30T06:11:52;11.30;99.90
55812;DHT22;41742;52.048;6.092;2022-10-30T06:14:21;11.30;99.90
55812;DHT22;41742;52.048;6.092;2022-10-30T06:16:49;11.20;99.90
55812;DHT22;41742;52.048;6.092;2022-10-30T06:19:15;11.30;99.90
55812;DHT22;41742;52.048;6.092;2022-10-30T06:21:41;11.20;99.90
55812;DHT22;41742;52.048;6.092;2022-10-30T06:24:29;11.10;99.90
55812;DHT22;41742;52.048;6.092;2022-10-30T06:27:17;11.20;99.90
55812;DHT22;41742;52.048;6.092;2022-10-30T06:29:43;11.10;99.90
55812;DHT22;41742;52.048;6.092;2022-10-30T06:32:09;11.20;99.90
55812;DHT22;41742;52.048;6.092;2022-10-30T06:34:35;11.20;99.90
55812;DHT22;41742;52.048;6.092;2022-10-30T06:37:01;11.20;99.90
55812;DHT22;41742;52.048;6.092;2022-10-30T06:39:27;11.20;99.90
55812;DHT22;41742;52.048;6.092;2022-10-30T06:42:15;11.20;99.90
55812;DHT22;41742;52.048;6.092;2022-10-30T06:44:52;11.20;99.90
55812;DHT22;41742;52.048;6.092;2022-10-30T06:47:18;11.20;99.90
55812;DHT22;41742;52.048;6.092;2022-10-30T06:49:44;11.10;99.90
55812;DHT22;41742;52.048;6.092;2022-10-30T06:52:10;11.20;99.90
55812;DHT22;41742;52.048;6.092;2022-10-30T06:54:36;11.20;99.90
55812;DHT22;41742;52.048;6.092;2022-10-30T06:57:01;11.20;99.90
55812;DHT22;41742;52.048;6.092;2022-10-30T06:59:48;11.20;99.90
55812;DHT22;41742;52.048;6.092;2022-10-30T07:02:27;11.20;99.90
55812;DHT22;41742;52.048;6.092;2022-10-30T07:04:56;11.20;99.90
55812;DHT22;41742;52.048;6.092;2022-10-30T07:07:21;11.20;99.90
55812;DHT22;41742;52.048;6.092;2022-10-30T07:09:47;11.30;99.90
55812;DHT22;41742;52.048;6.092;2022-10-30T07:12:15;11.30;99.90
55812;DHT22;41742;52.048;6.092;2022-10-30T07:14:56;11.30;99.90
55812;DHT22;41742;52.048;6.092;2022-10-30T07:17:33;11.30;99.90
55812;DHT22;41742;52.048;6.092;2022-10-30T07:20:05;11.40;99.90
55812;DHT22;41742;52.048;6.092;2022-10-30T07:22:31;11.40;99.90
55812;DHT22;41742;52.048;6.092;2022-10-30T07:24:57;11.40;99.90
55812;DHT22;41742;52.048;6.092;2022-10-30T07:27:47;11.40;99.90
55812;DHT22;41742;52.048;6.092;2022-10-30T07:30:39;11.40;99.90
55812;DHT22;41742;52.048;6.092;2022-10-30T07:33:15;11.40;99.90
55812;DHT22;41742;52.048;6.092;2022-10-30T07:36:02;11.40;99.90
55812;DHT22;41742;52.048;6.092;2022-10-30T07:39:03;11.40;99.90
55812;DHT22;41742;52.048;6.092;2022-10-30T07:41:33;11.50;99.90
55812;DHT22;41742;52.048;6.092;2022-10-30T07:44:34;11.50;99.90
55812;DHT22;41742;52.048;6.092;2022-10-30T07:47:27;11.50;99.90
55812;DHT22;41742;52.048;6.092;2022-10-30T07:49:53;11.60;99.90
55812;DHT22;41742;52.048;6.092;2022-10-30T07:52:18;11.60;99.90
55812;DHT22;41742;52.048;6.092;2022-10-30T07:54:46;11.70;99.90
55812;DHT22;41742;52.048;6.092;2022-10-30T07:57:34;11.70;99.90
55812;DHT22;41742;52.048;6.092;2022-10-30T08:00:19;11.70;99.90
55812;DHT22;41742;52.048;6.092;2022-10-30T08:02:55;11.80;99.90
55812;DHT22;41742;52.048;6.092;2022-10-30T08:05:35;11.90;99.90
55812;DHT22;41742;52.048;6.092;2022-10-30T08:08:07;11.90;99.90
55812;DHT22;41742;52.048;6.092;2022-10-30T08:10:34;12.00;99.90
55812;DHT22;41742;52.048;6.092;2022-10-30T08:13:00;11.90;99.90
55812;DHT22;41742;52.048;6.092;2022-10-30T08:15:26;11.90;99.90
55812;DHT22;41742;52.048;6.092;2022-10-30T08:17:52;11.90;99.90
55812;DHT22;41742;52.048;6.092;2022-10-30T08:20:21;11.90;99.90
55812;DHT22;41742;52.048;6.092;2022-10-30T08:22:49;12.00;99.90
55812;DHT22;41742;52.048;6.092;2022-10-30T08:25:21;12.10;99.90
55812;DHT22;41742;52.048;6.092;2022-10-30T08:27:54;12.20;99.90
55812;DHT22;41742;52.048;6.092;2022-10-30T08:30:24;12.20;99.90
55812;DHT22;41742;52.048;6.092;2022-10-30T08:33:01;12.30;99.90
55812;DHT22;41742;52.048;6.092;2022-10-30T08:35:51;12.40;99.90
55812;DHT22;41742;52.048;6.092;2022-10-30T08:38:17;12.50;99.90
55812;DHT22;41742;52.048;6.092;2022-10-30T08:40:45;12.50;99.90
55812;DHT22;41742;52.048;6.092;2022-10-30T08:43:11;12.60;99.90
55812;DHT22;41742;52.048;6.092;2022-10-30T08:45:38;12.70;99.90
55812;DHT22;41742;52.048;6.092;2022-10-30T08:48:22;12.70;99.90
55812;DHT22;41742;52.048;6.092;2022-10-30T08:50:49;12.80;99.90
55812;DHT22;41742;52.048;6.092;2022-10-30T08:53:20;12.90;99.90
55812;DHT22;41742;52.048;6.092;2022-10-30T08:55:47;12.90;99.90
55812;DHT22;41742;52.048;6.092;2022-10-30T08:58:20;13.00;99.90
55812;DHT22;41742;52.048;6.092;2022-10-30T09:00:47;13.10;99.90
55812;DHT22;41742;52.048;6.092;2022-10-30T09:03:12;13.20;99.90
55812;DHT22;41742;52.048;6.092;2022-10-30T09:06:00;13.20;99.90
55812;DHT22;41742;52.048;6.092;2022-10-30T09:08:45;13.30;99.90
55812;DHT22;41742;52.048;6.092;2022-10-30T09:11:29;13.40;99.90
55812;DHT22;41742;52.048;6.092;2022-10-30T09:13:56;13.40;99.90
55812;DHT22;41742;52.048;6.092;2022-10-30T09:16:22;13.50;99.90
55812;DHT22;41742;52.048;6.092;2022-10-30T09:18:48;13.50;99.90
55812;DHT22;41742;52.048;6.092;2022-10-30T09:21:14;13.50;99.90
55812;DHT22;41742;52.048;6.092;2022-10-30T09:23:44;13.60;99.90
55812;DHT22;41742;52.048;6.092;2022-10-30T09:26:28;13.60;99.90
55812;DHT22;41742;52.048;6.092;2022-10-30T09:28:59;13.70;99.90
55812;DHT22;41742;52.048;6.092;2022-10-30T09:31:43;13.80;99.90
55812;DHT22;41742;52.048;6.092;2022-10-30T09:34:13;13.80;99.90
55812;DHT22;41742;52.048;6.092;2022-10-30T09:36:46;13.80;99.90
55812;DHT22;41742;52.048;6.092;2022-10-30T09:39:13;13.90;99.90
55812;DHT22;41742;52.048;6.092;2022-10-30T09:45:17;14.00;99.90
55812;DHT22;41742;52.048;6.092;2022-10-30T10:01:38;14.70;99.90
55812;DHT22;41742;52.048;6.092;2022-10-30T10:07:32;15.00;99.90
55812;DHT22;41742;52.048;6.092;2022-10-30T10:10:38;15.10;99.90
55812;DHT22;41742;52.048;6.092;2022-10-30T10:13:27;15.20;99.90
55812;DHT22;41742;52.048;6.092;2022-10-30T10:15:58;15.20;99.90
55812;DHT22;41742;52.048;6.092;2022-10-30T10:18:32;15.30;99.90
55812;DHT22;41742;52.048;6.092;2022-10-30T10:21:08;15.40;99.90
55812;DHT22;41742;52.048;6.092;2022-10-30T10:23:46;15.50;99.90
55812;DHT22;41742;52.048;6.092;2022-10-30T10:26:26;15.60;99.90
55812;DHT22;41742;52.048;6.092;2022-10-30T10:31:38;15.70;99.90
55812;DHT22;41742;52.048;6.092;2022-10-30T10:34:33;15.90;99.90
55812;DHT22;41742;52.048;6.092;2022-10-30T10:45:58;16.40;99.90
55812;DHT22;41742;52.048;6.092;2022-10-30T10:51:16;16.70;99.90
55812;DHT22;41742;52.048;6.092;2022-10-30T10:53:59;16.70;99.90
55812;DHT22;41742;52.048;6.092;2022-10-30T10:56:38;16.70;99.90
55812;DHT22;41742;52.048;6.092;2022-10-30T10:59:26;16.70;99.90
55812;DHT22;41742;52.048;6.092;2022-10-30T11:02:23;16.60;99.90
55812;DHT22;41742;52.048;6.092;2022-10-30T11:04:53;16.70;99.90
55812;DHT22;41742;52.048;6.092;2022-10-30T11:07:22;16.80;99.90
55812;DHT22;41742;52.048;6.092;2022-10-30T11:09:52;16.90;99.90
55812;DHT22;41742;52.048;6.092;2022-10-30T11:12:24;17.00;99.90
55812;DHT22;41742;52.048;6.092;2022-10-30T11:14:49;17.10;99.90
55812;DHT22;41742;52.048;6.092;2022-10-30T11:17:23;17.10;99.90
55812;DHT22;41742;52.048;6.092;2022-10-30T11:19:50;17.10;99.90
55812;DHT22;41742;52.048;6.092;2022-10-30T11:24:50;17.40;99.90
55812;DHT22;41742;52.048;6.092;2022-10-30T11:27:22;17.50;99.90
55812;DHT22;41742;52.048;6.092;2022-10-30T11:30:15;17.60;99.90
55812;DHT22;41742;52.048;6.092;2022-10-30T11:32:41;17.70;99.90
55812;DHT22;41742;52.048;6.092;2022-10-30T11:37:34;17.90;99.90
55812;DHT22;41742;52.048;6.092;2022-10-30T11:40:22;18.10;99.90
55812;DHT22;41742;52.048;6.092;2022-10-30T11:42:59;18.20;99.90
55812;DHT22;41742;52.048;6.092;2022-10-30T11:45:32;18.20;99.90
55812;DHT22;41742;52.048;6.092;2022-10-30T11:47:59;18.40;99.90
55812;DHT22;41742;52.048;6.092;2022-10-30T11:50:28;18.60;99.90
55812;DHT22;41742;52.048;6.092;2022-10-30T11:52:58;18.70;99.90
55812;DHT22;41742;52.048;6.092;2022-10-30T11:55:38;18.80;99.90
55812;DHT22;41742;52.048;6.092;2022-10-30T11:58:05;18.90;99.90
55812;DHT22;41742;52.048;6.092;2022-10-30T12:00:34;19.10;99.90
55812;DHT22;41742;52.048;6.092;2022-10-30T12:03:01;19.00;99.90
55812;DHT22;41742;52.048;6.092;2022-10-30T12:05:37;18.90;99.90
55812;DHT22;41742;52.048;6.092;2022-10-30T12:10:55;19.00;99.90
55812;DHT22;41742;52.048;6.092;2022-10-30T12:13:21;19.10;99.90
55812;DHT22;41742;52.048;6.092;2022-10-30T12:16:03;19.10;99.90
55812;DHT22;41742;52.048;6.092;2022-10-30T12:18:30;19.30;99.90
55812;DHT22;41742;52.048;6.092;2022-10-30T12:20:56;19.40;99.90
55812;DHT22;41742;52.048;6.092;2022-10-30T12:23:24;19.50;99.90
55812;DHT22;41742;52.048;6.092;2022-10-30T12:26:16;19.60;99.90
55812;DHT22;41742;52.048;6.092;2022-10-30T12:28:54;19.50;99.90
55812;DHT22;41742;52.048;6.092;2022-10-30T12:31:29;19.50;99.90
55812;DHT22;41742;52.048;6.092;2022-10-30T12:36:33;19.70;99.90
55812;DHT22;41742;52.048;6.092;2022-10-30T12:39:13;19.80;99.90
55812;DHT22;41742;52.048;6.092;2022-10-30T12:42:16;19.70;99.90
55812;DHT22;41742;52.048;6.092;2022-10-30T12:45:02;19.40;99.90
55812;DHT22;41742;52.048;6.092;2022-10-30T12:50:22;19.20;99.90
55812;DHT22;41742;52.048;6.092;2022-10-30T12:53:21;19.10;99.90
55812;DHT22;41742;52.048;6.092;2022-10-30T12:55:50;19.10;99.90
55812;DHT22;41742;52.048;6.092;2022-10-30T12:58:43;19.00;99.90
55812;DHT22;41742;52.048;6.092;2022-10-30T13:01:40;19.10;99.90
55812;DHT22;41742;52.048;6.092;2022-10-30T13:09:26;19.10;99.90
55812;DHT22;41742;52.048;6.092;2022-10-30T13:12:04;19.10;99.90
55812;DHT22;41742;52.048;6.092;2022-10-30T13:14:56;19.10;99.90
55812;DHT22;41742;52.048;6.092;2022-10-30T13:17:22;19.00;99.90
55812;DHT22;41742;52.048;6.092;2022-10-30T13:19:48;19.00;99.90
55812;DHT22;41742;52.048;6.092;2022-10-30T13:22:35;18.90;99.90
55812;DHT22;41742;52.048;6.092;2022-10-30T13:25:19;18.80;99.90
55812;DHT22;41742;52.048;6.092;2022-10-30T13:28:03;18.70;99.90
55812;DHT22;41742;52.048;6.092;2022-10-30T13:30:39;18.70;99.90
55812;DHT22;41742;52.048;6.092;2022-10-30T13:36:04;18.60;99.90
55812;DHT22;41742;52.048;6.092;2022-10-30T13:44:16;18.70;99.90
55812;DHT22;41742;52.048;6.092;2022-10-30T13:49:32;18.70;99.90
55812;DHT22;41742;52.048;6.092;2022-10-30T13:52:14;18.70;99.90
55812;DHT22;41742;52.048;6.092;2022-10-30T13:54:58;18.90;99.90
55812;DHT22;41742;52.048;6.092;2022-10-30T13:57:43;19.10;99.90
55812;DHT22;41742;52.048;6.092;2022-10-30T14:00:22;19.20;99.90
55812;DHT22;41742;52.048;6.092;2022-10-30T14:03:11;19.30;99.90
55812;DHT22;41742;52.048;6.092;2022-10-30T14:06:07;19.40;99.90
55812;DHT22;41742;52.048;6.092;2022-10-30T14:08:42;19.50;99.90
55812;DHT22;41742;52.048;6.092;2022-10-30T14:11:13;19.60;99.90
55812;DHT22;41742;52.048;6.092;2022-10-30T14:13:56;19.60;99.90
55812;DHT22;41742;52.048;6.092;2022-10-30T14:16:41;19.60;99.90
55812;DHT22;41742;52.048;6.092;2022-10-30T14:19:15;19.50;99.90
55812;DHT22;41742;52.048;6.092;2022-10-30T14:21:54;19.30;99.90
55812;DHT22;41742;52.048;6.092;2022-10-30T14:24:31;19.10;99.90
55812;DHT22;41742;52.048;6.092;2022-10-30T14:31:59;18.60;99.90
55812;DHT22;41742;52.048;6.092;2022-10-30T14:37:14;18.40;99.90
55812;DHT22;41742;52.048;6.092;2022-10-30T14:39:44;18.30;99.90
55812;DHT22;41742;52.048;6.092;2022-10-30T14:42:23;18.30;99.90
55812;DHT22;41742;52.048;6.092;2022-10-30T14:45:16;18.20;99.90
55812;DHT22;41742;52.048;6.092;2022-10-30T15:05:59;17.70;99.90
55812;DHT22;41742;52.048;6.092;2022-10-30T15:13:52;17.60;99.90
55812;DHT22;41742;52.048;6.092;2022-10-30T15:16:20;17.60;99.90
55812;DHT22;41742;52.048;6.092;2022-10-30T15:18:52;17.50;99.90
55812;DHT22;41742;52.048;6.092;2022-10-30T15:21:21;17.50;99.90
55812;DHT22;41742;52.048;6.092;2022-10-30T15:23:51;17.50;99.90
55812;DHT22;41742;52.048;6.092;2022-10-30T15:26:20;17.50;99.90
55812;DHT22;41742;52.048;6.092;2022-10-30T15:28:49;17.40;99.90
55812;DHT22;41742;52.048;6.092;2022-10-30T15:31:26;17.40;99.90
55812;DHT22;41742;52.048;6.092;2022-10-30T15:33:53;17.40;99.90
55812;DHT22;41742;52.048;6.092;2022-10-30T15:36:34;17.40;99.90
55812;DHT22;41742;52.048;6.092;2022-10-30T15:41:35;17.20;99.90
55812;DHT22;41742;52.048;6.092;2022-10-30T15:44:03;17.10;99.90
55812;DHT22;41742;52.048;6.092;2022-10-30T15:46:29;17.10;99.90
55812;DHT22;41742;52.048;6.092;2022-10-30T15:48:55;17.00;99.90
55812;DHT22;41742;52.048;6.092;2022-10-30T15:51:22;16.90;99.90
55812;DHT22;41742;52.048;6.092;2022-10-30T15:53:57;16.90;99.90
55812;DHT22;41742;52.048;6.092;2022-10-30T15:58:58;16.70;99.90
55812;DHT22;41742;52.048;6.092;2022-10-30T16:01:44;16.60;99.90
55812;DHT22;41742;52.048;6.092;2022-10-30T16:04:15;16.60;99.90
55812;DHT22;41742;52.048;6.092;2022-10-30T16:06:51;16.60;99.90
55812;DHT22;41742;52.048;6.092;2022-10-30T16:09:17;16.60;99.90
55812;DHT22;41742;52.048;6.092;2022-10-30T16:11:44;16.50;99.90
55812;DHT22;41742;52.048;6.092;2022-10-30T16:14:15;16.40;99.90
55812;DHT22;41742;52.048;6.092;2022-10-30T16:16:43;16.40;99.90
55812;DHT22;41742;52.048;6.092;2022-10-30T16:19:20;16.30;99.90
55812;DHT22;41742;52.048;6.092;2022-10-30T16:21:48;16.20;99.90
55812;DHT22;41742;52.048;6.092;2022-10-30T16:24:15;16.20;99.90
55812;DHT22;41742;52.048;6.092;2022-10-30T16:26:43;16.10;99.90
55812;DHT22;41742;52.048;6.092;2022-10-30T16:31:44;16.00;99.90
55812;DHT22;41742;52.048;6.092;2022-10-30T16:34:26;16.00;99.90
55812;DHT22;41742;52.048;6.092;2022-10-30T16:36:56;15.90;99.90
55812;DHT22;41742;52.048;6.092;2022-10-30T16:39:24;15.90;99.90
55812;DHT22;41742;52.048;6.092;2022-10-30T16:41:50;15.80;99.90
55812;DHT22;41742;52.048;6.092;2022-10-30T16:44:18;15.80;99.90
55812;DHT22;41742;52.048;6.092;2022-10-30T16:49:36;15.60;99.90
55812;DHT22;41742;52.048;6.092;2022-10-30T16:52:04;15.60;99.90
55812;DHT22;41742;52.048;6.092;2022-10-30T16:54:39;15.60;99.90
55812;DHT22;41742;52.048;6.092;2022-10-30T16:57:21;15.60;99.90
55812;DHT22;41742;52.048;6.092;2022-10-30T16:59:49;15.60;99.90
55812;DHT22;41742;52.048;6.092;2022-10-30T17:02:19;15.60;99.90
55812;DHT22;41742;52.048;6.092;2022-10-30T17:04:46;15.50;99.90
55812;DHT22;41742;52.048;6.092;2022-10-30T17:07:18;15.60;99.90
55812;DHT22;41742;52.048;6.092;2022-10-30T17:09:48;15.60;99.90
55812;DHT22;41742;52.048;6.092;2022-10-30T17:17:33;15.80;99.90
55812;DHT22;41742;52.048;6.092;2022-10-30T17:20:02;15.80;99.90
55812;DHT22;41742;52.048;6.092;2022-10-30T17:22:28;15.80;99.90
55812;DHT22;41742;52.048;6.092;2022-10-30T17:24:54;16.00;99.90
55812;DHT22;41742;52.048;6.092;2022-10-30T17:27:41;16.10;99.90
55812;DHT22;41742;52.048;6.092;2022-10-30T17:30:32;16.20;99.90
55812;DHT22;41742;52.048;6.092;2022-10-30T17:33:03;16.20;99.90
55812;DHT22;41742;52.048;6.092;2022-10-30T17:35:45;16.20;99.90
55812;DHT22;41742;52.048;6.092;2022-10-30T17:38:10;16.20;99.90
55812;DHT22;41742;52.048;6.092;2022-10-30T17:40:36;16.20;99.90
55812;DHT22;41742;52.048;6.092;2022-10-30T17:43:02;16.20;99.90
55812;DHT22;41742;52.048;6.092;2022-10-30T17:45:27;16.20;99.90
55812;DHT22;41742;52.048;6.092;2022-10-30T17:47:53;16.20;99.90
55812;DHT22;41742;52.048;6.092;2022-10-30T17:50:18;16.10;99.90
55812;DHT22;41742;52.048;6.092;2022-10-30T17:52:44;16.10;99.90
55812;DHT22;41742;52.048;6.092;2022-10-30T17:55:22;16.10;99.90
55812;DHT22;41742;52.048;6.092;2022-10-30T17:57:49;16.10;99.90
55812;DHT22;41742;52.048;6.092;2022-10-30T18:00:15;16.10;99.90
55812;DHT22;41742;52.048;6.092;2022-10-30T18:02:41;16.00;99.90
55812;DHT22;41742;52.048;6.092;2022-10-30T18:05:18;15.90;99.90
55812;DHT22;41742;52.048;6.092;2022-10-30T18:07:45;15.90;99.90
55812;DHT22;41742;52.048;6.092;2022-10-30T18:10:12;15.90;99.90
55812;DHT22;41742;52.048;6.092;2022-10-30T18:12:38;15.80;99.90
55812;DHT22;41742;52.048;6.092;2022-10-30T18:17:50;15.80;99.90